createdAt,value
2019-05-01T00:01:17.744Z,29.03
2019-05-01T00:04:09.170Z,29.33
2019-05-01T00:06:42.217Z,20.90
2019-05-01T00:09:13.128Z,18.07
2019-05-01T00:11:42.600Z,20.17
2019-05-01T00:14:12.551Z,18.60
2019-05-01T00:16:45.093Z,18.83
2019-05-01T00:19:14.239Z,17.70
2019-05-01T00:21:43.392Z,16.93
2019-05-01T00:24:12.561Z,17.50
2019-05-01T00:26:42.728Z,19.83
2019-05-01T00:29:11.900Z,21.23
2019-05-01T00:31:41.042Z,17.40
2019-05-01T00:34:10.207Z,17.97
2019-05-01T00:36:40.533Z,17.00
2019-05-01T00:39:14.663Z,22.13
2019-05-01T00:41:44.150Z,19.90
2019-05-01T00:44:13.360Z,20.40
2019-05-01T00:46:42.510Z,18.27
2019-05-01T00:49:24.119Z,19.07
2019-05-01T00:51:53.614Z,19.60
2019-05-01T00:54:22.780Z,19.47
2019-05-01T00:57:09.591Z,22.73
2019-05-01T01:00:08.237Z,21.80
2019-05-01T01:02:43.140Z,24.17
2019-05-01T01:05:12.466Z,21.23
2019-05-01T01:07:41.631Z,22.83
2019-05-01T01:10:10.913Z,20.20
2019-05-01T01:12:40.071Z,20.13
2019-05-01T01:15:09.439Z,22.73
2019-05-01T01:17:39.886Z,20.37
2019-05-01T01:20:09.966Z,17.60
2019-05-01T01:22:39.676Z,20.80
2019-05-01T01:25:11.316Z,22.20
2019-05-01T01:27:42.309Z,23.13
2019-05-01T01:30:11.784Z,20.47
2019-05-01T01:32:41.205Z,20.17
2019-05-01T01:35:10.389Z,22.10
2019-05-01T01:37:39.567Z,23.43
2019-05-01T01:40:09.318Z,21.30
2019-05-01T01:42:39.639Z,21.77
2019-05-01T01:45:27.778Z,27.20
2019-05-01T01:48:11.868Z,21.70
2019-05-01T01:50:44.340Z,21.67
2019-05-01T01:53:16.712Z,22.83
2019-05-01T01:55:47.251Z,22.33
2019-05-01T01:58:18.462Z,20.77
2019-05-01T02:01:09.243Z,22.13
2019-05-01T02:03:33.613Z,22.63
2019-05-01T02:06:03.817Z,23.40
2019-05-01T02:08:32.792Z,23.43
2019-05-01T02:11:01.993Z,25.30
2019-05-01T02:13:31.405Z,26.77
2019-05-01T02:16:01.118Z,22.90
2019-05-01T02:18:31.270Z,22.60
2019-05-01T02:21:00.741Z,24.23
2019-05-01T02:23:30.679Z,22.03
2019-05-01T02:26:00.358Z,23.90
2019-05-01T02:28:49.832Z,22.00
2019-05-01T02:31:28.007Z,22.57
2019-05-01T02:33:58.186Z,19.30
2019-05-01T02:36:28.811Z,21.83
2019-05-01T02:38:59.921Z,20.77
2019-05-01T02:41:36.834Z,22.30
2019-05-01T02:44:16.040Z,23.77
2019-05-01T02:46:49.074Z,20.30
2019-05-01T02:49:32.943Z,21.27
2019-05-01T02:52:03.200Z,23.00
2019-05-01T02:54:34.015Z,24.03
2019-05-01T02:57:10.942Z,27.60
2019-05-01T02:59:46.517Z,25.13
2019-05-01T03:02:17.315Z,23.43
2019-05-01T03:04:47.102Z,25.60
2019-05-01T03:07:17.670Z,23.87
2019-05-01T03:09:47.639Z,23.17
2019-05-01T03:12:20.013Z,20.60
2019-05-01T03:14:52.057Z,24.27
2019-05-01T03:17:40.254Z,24.77
2019-05-01T03:20:25.231Z,24.00
2019-05-01T03:23:15.983Z,25.20
2019-05-01T03:25:45.188Z,24.27
2019-05-01T03:28:14.480Z,25.10
2019-05-01T03:30:45.242Z,27.60
2019-05-01T03:33:14.696Z,22.73
2019-05-01T03:35:44.338Z,24.47
2019-05-01T03:38:13.676Z,25.97
2019-05-01T03:40:42.971Z,24.33
2019-05-01T03:43:12.867Z,25.50
2019-05-01T03:45:42.526Z,26.97
2019-05-01T03:48:12.156Z,24.03
2019-05-01T03:50:41.378Z,25.17
2019-05-01T03:53:12.611Z,26.17
2019-05-01T03:55:42.081Z,24.77
2019-05-01T03:58:12.318Z,25.43
2019-05-01T04:00:52.881Z,26.43
2019-05-01T04:03:31.337Z,28.33
2019-05-01T04:06:00.891Z,24.27
2019-05-01T04:08:30.066Z,23.97
2019-05-01T04:10:59.414Z,27.53
2019-05-01T04:13:30.045Z,22.57
2019-05-01T04:16:00.079Z,25.97
2019-05-01T04:18:29.537Z,24.53
2019-05-01T04:20:59.384Z,23.50
2019-05-01T04:23:29.135Z,23.83
2019-05-01T04:25:58.302Z,23.93
2019-05-01T04:28:45.628Z,23.50
2019-05-01T04:31:33.953Z,25.97
2019-05-01T04:34:07.512Z,20.90
2019-05-01T04:36:41.381Z,23.97
2019-05-01T04:39:10.561Z,26.53
2019-05-01T04:41:41.456Z,24.53
2019-05-01T04:44:10.736Z,27.37
2019-05-01T04:46:41.638Z,24.67
2019-05-01T04:49:11.871Z,26.60
2019-05-01T04:51:45.620Z,24.90
2019-05-01T04:54:15.525Z,23.03
2019-05-01T04:56:49.928Z,23.30
2019-05-01T04:59:19.929Z,25.97
2019-05-01T05:01:57.065Z,25.20
2019-05-01T05:04:27.298Z,23.93
2019-05-01T05:06:57.986Z,24.97
2019-05-01T05:09:41.816Z,23.70
2019-05-01T05:12:36.248Z,28.20
2019-05-01T05:15:25.350Z,24.03
2019-05-01T05:17:57.484Z,26.80
2019-05-01T05:20:26.810Z,21.90
2019-05-01T05:22:56.400Z,23.73
2019-05-01T05:25:25.575Z,26.37
2019-05-01T05:27:55.841Z,23.70
2019-05-01T05:30:29.559Z,25.90
2019-05-01T05:33:02.283Z,25.03
2019-05-01T05:35:33.413Z,23.40
2019-05-01T05:38:38.404Z,26.47
2019-05-01T05:41:08.012Z,25.57
2019-05-01T05:43:37.392Z,24.63
2019-05-01T05:46:07.058Z,28.20
2019-05-01T05:48:36.447Z,29.23
2019-05-01T05:51:25.570Z,26.80
2019-05-01T05:53:58.201Z,26.87
2019-05-01T05:56:34.130Z,23.47
2019-05-01T05:59:10.582Z,25.00
2019-05-01T06:01:56.757Z,26.57
2019-05-01T06:04:57.629Z,29.57
2019-05-01T06:07:37.873Z,29.03
2019-05-01T06:10:26.695Z,28.23
2019-05-01T06:13:09.595Z,26.40
2019-05-01T06:15:57.213Z,29.93
2019-05-01T06:18:56.008Z,26.23
2019-05-01T06:21:34.781Z,24.30
2019-05-01T06:24:17.709Z,25.90
2019-05-01T06:26:53.611Z,26.07
2019-05-01T06:29:23.085Z,26.83
2019-05-01T06:31:53.978Z,27.67
2019-05-01T06:34:28.319Z,26.43
2019-05-01T06:36:56.032Z,24.83
2019-05-01T06:39:25.239Z,25.03
2019-05-01T06:41:55.096Z,26.23
2019-05-01T06:44:44.049Z,26.30
2019-05-01T06:47:38.315Z,28.93
2019-05-01T06:50:26.330Z,26.57
2019-05-01T06:52:59.778Z,26.97
2019-05-01T06:55:28.891Z,25.30
2019-05-01T06:57:58.168Z,23.77
2019-05-01T07:00:27.831Z,26.60
2019-05-01T07:02:58.484Z,30.70
2019-05-01T07:05:29.627Z,26.93
2019-05-01T07:07:59.571Z,27.40
2019-05-01T07:10:32.856Z,27.03
2019-05-01T07:13:05.113Z,25.80
2019-05-01T07:15:35.617Z,28.37
2019-05-01T07:18:05.139Z,27.77
2019-05-01T07:20:53.520Z,28.77
2019-05-01T07:23:23.043Z,26.83
2019-05-01T07:25:54.075Z,27.00
2019-05-01T07:28:24.248Z,27.77
2019-05-01T07:31:12.672Z,30.70
2019-05-01T07:33:46.994Z,29.03
2019-05-01T07:36:16.575Z,26.70
2019-05-01T07:38:47.512Z,24.97
2019-05-01T07:41:18.696Z,28.10
2019-05-01T07:44:00.882Z,25.63
2019-05-01T07:46:54.155Z,23.43
2019-05-01T07:49:29.062Z,26.47
2019-05-01T07:52:01.702Z,25.97
2019-05-01T07:54:31.083Z,23.30
2019-05-01T07:57:03.220Z,25.13
2019-05-01T07:59:32.774Z,26.83
2019-05-01T08:02:06.722Z,23.70
2019-05-01T08:04:36.676Z,27.03
2019-05-01T08:07:06.077Z,25.83
2019-05-01T08:09:36.571Z,24.63
2019-05-01T08:12:06.871Z,25.90
2019-05-01T08:14:38.166Z,23.30
2019-05-01T08:17:12.790Z,23.13
2019-05-01T08:19:46.607Z,23.97
2019-05-01T08:22:20.224Z,20.20
2019-05-01T08:24:53.917Z,22.53
2019-05-01T08:27:37.100Z,20.87
2019-05-01T08:30:27.398Z,23.27
2019-05-01T08:33:15.923Z,21.70
2019-05-01T08:35:46.003Z,25.03
2019-05-01T08:38:15.486Z,19.93
2019-05-01T08:40:44.647Z,21.83
2019-05-01T08:43:18.100Z,19.80
2019-05-01T08:46:16.557Z,22.67
2019-05-01T08:49:16.327Z,20.07
2019-05-01T08:51:45.575Z,19.77
2019-05-01T08:54:15.548Z,20.80
2019-05-01T08:57:00.026Z,22.20
2019-05-01T08:59:29.318Z,20.03
2019-05-01T09:02:09.522Z,18.60
2019-05-01T09:04:38.386Z,20.73
2019-05-01T09:07:08.114Z,18.23
2019-05-01T09:09:39.913Z,19.27
2019-05-01T09:12:12.020Z,19.77
2019-05-01T09:14:40.132Z,17.43
2019-05-01T09:17:09.280Z,21.17
2019-05-01T09:19:39.277Z,21.30
2019-05-01T09:22:14.077Z,21.53
2019-05-01T09:24:44.254Z,19.87
2019-05-01T09:27:32.478Z,17.40
2019-05-01T09:30:05.223Z,19.43
2019-05-01T09:32:34.706Z,20.83
2019-05-01T09:35:15.076Z,23.43
2019-05-01T09:37:35.711Z,20.43
2019-05-01T09:40:09.121Z,20.57
2019-05-01T09:42:39.365Z,20.57
2019-05-01T09:45:12.610Z,18.43
2019-05-01T09:47:43.403Z,20.73
2019-05-01T09:50:12.685Z,20.57
2019-05-01T09:53:15.831Z,18.43
2019-05-01T09:55:53.035Z,20.87
2019-05-01T09:58:23.596Z,18.03
2019-05-01T10:00:55.963Z,19.33
2019-05-01T10:03:25.639Z,20.20
2019-05-01T10:05:57.618Z,20.43
2019-05-01T10:08:28.033Z,19.83
2019-05-01T10:11:00.185Z,20.17
2019-05-01T10:13:29.782Z,19.63
2019-05-01T10:15:58.970Z,21.37
2019-05-01T10:18:28.123Z,22.10
2019-05-01T10:20:57.320Z,19.90
2019-05-01T10:23:26.481Z,20.37
2019-05-01T10:25:59.510Z,20.43
2019-05-01T10:28:38.462Z,24.90
2019-05-01T10:31:15.874Z,20.97
2019-05-01T10:33:46.534Z,20.23
2019-05-01T10:36:38.739Z,17.70
2019-05-01T10:39:08.682Z,22.27
2019-05-01T10:41:41.328Z,19.83
2019-05-01T10:44:09.615Z,20.23
2019-05-01T10:46:42.338Z,17.13
2019-05-01T10:49:12.585Z,20.40
2019-05-01T10:51:44.608Z,18.70
2019-05-01T10:54:17.642Z,18.37
2019-05-01T10:56:50.986Z,16.90
2019-05-01T10:59:21.827Z,17.90
2019-05-01T11:01:57.352Z,17.83
2019-05-01T11:04:26.824Z,17.17
2019-05-01T11:06:57.639Z,17.70
2019-05-01T11:09:29.922Z,16.90
2019-05-01T11:12:34.469Z,20.47
2019-05-01T11:15:10.358Z,19.27
2019-05-01T11:17:40.682Z,19.33
2019-05-01T11:20:15.216Z,16.93
2019-05-01T11:22:50.683Z,18.27
2019-05-01T11:25:22.554Z,17.73
2019-05-01T11:27:52.250Z,20.20
2019-05-01T11:30:26.510Z,15.97
2019-05-01T11:33:06.270Z,17.53
2019-05-01T11:36:02.966Z,18.73
2019-05-01T11:38:46.060Z,18.17
2019-05-01T11:41:36.454Z,17.33
2019-05-01T11:44:06.083Z,18.07
2019-05-01T11:46:36.766Z,14.23
2019-05-01T11:49:08.418Z,17.30
2019-05-01T11:51:39.356Z,18.03
2019-05-01T11:54:09.349Z,17.03
2019-05-01T11:56:38.982Z,16.03
2019-05-01T11:59:11.180Z,16.67
2019-05-01T12:01:42.195Z,16.60
2019-05-01T12:04:12.617Z,14.47
2019-05-01T12:06:43.339Z,15.23
2019-05-01T12:09:14.526Z,18.57
2019-05-01T12:12:00.043Z,18.33
2019-05-01T12:14:30.774Z,14.40
2019-05-01T12:17:07.067Z,14.03
2019-05-01T12:19:38.252Z,13.13
2019-05-01T12:22:09.249Z,12.50
2019-05-01T12:24:40.661Z,13.33
2019-05-01T12:27:13.373Z,12.90
2019-05-01T12:29:43.712Z,15.40
2019-05-01T12:32:18.675Z,14.07
2019-05-01T12:34:48.498Z,13.20
2019-05-01T12:37:23.705Z,14.83
2019-05-01T12:39:52.897Z,13.43
2019-05-01T12:42:23.913Z,14.37
2019-05-01T12:44:53.086Z,12.30
2019-05-01T12:47:32.132Z,13.60
2019-05-01T12:50:01.995Z,11.87
2019-05-01T12:52:43.535Z,12.50
2019-05-01T12:55:19.793Z,13.90
2019-05-01T12:57:49.268Z,16.50
2019-05-01T13:00:20.408Z,14.00
2019-05-01T13:02:49.726Z,12.50
2019-05-01T13:05:19.837Z,14.13
2019-05-01T13:07:49.334Z,11.73
2019-05-01T13:10:23.926Z,14.73
2019-05-01T13:12:54.947Z,11.93
2019-05-01T13:15:25.665Z,13.10
2019-05-01T13:17:55.399Z,14.87
2019-05-01T13:20:27.009Z,12.53
2019-05-01T13:22:58.040Z,12.57
2019-05-01T13:25:31.998Z,11.30
2019-05-01T13:28:23.471Z,12.77
2019-05-01T13:31:12.137Z,14.93
2019-05-01T13:33:44.372Z,11.07
2019-05-01T13:36:15.835Z,13.03
2019-05-01T13:38:48.801Z,10.77
2019-05-01T13:41:26.065Z,15.03
2019-05-01T13:44:00.330Z,14.20
2019-05-01T13:47:00.408Z,11.83
2019-05-01T13:49:34.876Z,13.67
2019-05-01T13:52:05.866Z,11.20
2019-05-01T13:54:37.106Z,9.67
2019-05-01T13:57:06.965Z,10.43
2019-05-01T13:59:40.053Z,10.87
2019-05-01T14:02:09.285Z,12.53
2019-05-01T14:04:40.528Z,10.20
2019-05-01T14:07:16.792Z,12.20
2019-05-01T14:09:44.133Z,12.87
2019-05-01T14:12:13.325Z,12.57
2019-05-01T14:14:46.604Z,12.37
2019-05-01T14:17:16.063Z,12.30
2019-05-01T14:19:56.126Z,10.63
2019-05-01T14:22:37.386Z,11.07
2019-05-01T14:25:07.981Z,11.80
2019-05-01T14:27:38.589Z,9.37
2019-05-01T14:30:12.808Z,10.17
2019-05-01T14:32:44.096Z,10.93
2019-05-01T14:35:15.362Z,10.23
2019-05-01T14:37:44.900Z,10.67
2019-05-01T14:40:16.755Z,9.70
2019-05-01T14:42:46.274Z,9.90
2019-05-01T14:45:17.266Z,13.53
2019-05-01T14:47:49.049Z,12.80
2019-05-01T14:50:19.963Z,13.77
2019-05-01T14:52:49.359Z,14.30
2019-05-01T14:55:19.126Z,13.43
2019-05-01T14:57:49.596Z,11.50
2019-05-01T15:00:19.997Z,11.93
2019-05-01T15:02:49.522Z,12.77
2019-05-01T15:05:20.321Z,12.00
2019-05-01T15:07:49.783Z,11.33
2019-05-01T15:10:20.042Z,14.23
2019-05-01T15:12:51.750Z,10.60
2019-05-01T15:15:55.119Z,10.87
2019-05-01T15:18:36.810Z,11.13
2019-05-01T15:21:06.378Z,12.03
2019-05-01T15:23:38.679Z,13.37
2019-05-01T15:26:08.066Z,12.60
2019-05-01T15:28:37.544Z,12.57
2019-05-01T15:31:12.971Z,12.27
2019-05-01T15:33:48.278Z,13.03
2019-05-01T15:36:44.078Z,14.00
2019-05-01T15:39:35.339Z,11.80
2019-05-01T15:42:32.082Z,14.67
2019-05-01T15:45:02.725Z,11.97
2019-05-01T15:47:33.482Z,13.20
2019-05-01T15:50:08.054Z,15.40
2019-05-01T15:52:38.277Z,13.20
2019-05-01T15:55:08.241Z,10.77
2019-05-01T15:57:49.958Z,11.53
2019-05-01T16:00:21.508Z,14.87
2019-05-01T16:02:50.926Z,13.70
2019-05-01T16:05:29.402Z,12.37
2019-05-01T16:08:09.421Z,13.63
2019-05-01T16:10:35.573Z,11.50
2019-05-01T16:13:04.891Z,13.90
2019-05-01T16:15:35.344Z,13.20
2019-05-01T16:18:05.193Z,10.43
2019-05-01T16:20:55.277Z,10.37
2019-05-01T16:23:24.749Z,12.13
2019-05-01T16:25:53.979Z,12.50
2019-05-01T16:28:26.968Z,12.43
2019-05-01T16:31:00.793Z,12.27
2019-05-01T16:33:31.371Z,10.40
2019-05-01T16:36:03.454Z,13.40
2019-05-01T16:38:45.060Z,12.40
2019-05-01T16:41:14.244Z,12.37
2019-05-01T16:43:44.194Z,11.00
2019-05-01T16:46:16.417Z,11.60
2019-05-01T16:48:45.596Z,11.63
2019-05-01T16:51:14.811Z,10.67
2019-05-01T16:53:45.607Z,9.10
2019-05-01T16:56:14.744Z,9.57
2019-05-01T16:58:44.203Z,10.50
2019-05-01T17:01:24.447Z,10.80
2019-05-01T17:04:22.302Z,13.53
2019-05-01T17:07:16.874Z,10.80
2019-05-01T17:10:04.907Z,10.63
2019-05-01T17:12:40.595Z,8.77
2019-05-01T17:15:10.195Z,13.03
2019-05-01T17:17:40.500Z,12.07
2019-05-01T17:20:09.971Z,12.90
2019-05-01T17:22:39.855Z,10.47
2019-05-01T17:25:11.787Z,10.87
2019-05-01T17:27:42.851Z,11.30
2019-05-01T17:30:17.733Z,11.30
2019-05-01T17:32:48.155Z,10.17
2019-05-01T17:35:17.366Z,8.63
2019-05-01T17:37:46.596Z,9.13
2019-05-01T17:40:18.735Z,11.03
2019-05-01T17:42:48.172Z,11.97
2019-05-01T17:45:18.245Z,11.30
2019-05-01T17:47:47.456Z,11.30
2019-05-01T17:50:20.977Z,12.90
2019-05-01T17:52:47.531Z,10.60
2019-05-01T17:55:16.965Z,11.43
2019-05-01T17:57:46.141Z,13.43
2019-05-01T18:00:38.708Z,12.20
2019-05-01T18:03:16.011Z,9.77
2019-05-01T18:06:07.882Z,11.13
2019-05-01T18:08:37.724Z,12.10
2019-05-01T18:11:09.397Z,10.83
2019-05-01T18:13:38.379Z,10.27
2019-05-01T18:16:08.606Z,11.77
2019-05-01T18:18:38.343Z,12.97
2019-05-01T18:21:09.800Z,10.70
2019-05-01T18:24:18.897Z,10.40
2019-05-01T18:27:10.191Z,13.33
2019-05-01T18:29:47.751Z,12.90
2019-05-01T18:32:23.516Z,12.17
2019-05-01T18:34:53.856Z,15.20
2019-05-01T18:37:35.042Z,12.47
2019-05-01T18:40:03.947Z,14.13
2019-05-01T18:42:33.827Z,14.50
2019-05-01T18:45:03.285Z,12.27
2019-05-01T18:47:35.124Z,14.77
2019-05-01T18:50:06.268Z,14.37
2019-05-01T18:52:35.629Z,12.60
2019-05-01T18:55:05.106Z,11.20
2019-05-01T18:57:34.481Z,13.10
2019-05-01T19:00:06.969Z,11.57
2019-05-01T19:02:38.974Z,13.43
2019-05-01T19:05:10.571Z,13.97
2019-05-01T19:07:48.365Z,10.70
2019-05-01T19:10:20.321Z,11.97
2019-05-01T19:12:52.656Z,12.70
2019-05-01T19:15:25.498Z,12.73
2019-05-01T19:17:54.902Z,11.13
2019-05-01T19:20:24.485Z,13.00
2019-05-01T19:22:54.421Z,10.67
2019-05-01T19:25:24.308Z,11.97
2019-05-01T19:27:53.738Z,12.10
2019-05-01T19:30:22.912Z,11.77
2019-05-01T19:32:54.170Z,13.73
2019-05-01T19:35:29.666Z,11.57
2019-05-01T19:37:57.464Z,11.10
2019-05-01T19:40:30.757Z,14.67
2019-05-01T19:43:00.160Z,12.03
2019-05-01T19:45:29.622Z,10.87
2019-05-01T19:47:58.750Z,11.03
2019-05-01T19:50:29.187Z,12.57
2019-05-01T19:52:58.511Z,13.10
2019-05-01T19:55:27.911Z,12.47
2019-05-01T19:57:57.323Z,15.17
2019-05-01T20:00:56.681Z,13.73
2019-05-01T20:03:30.549Z,12.63
2019-05-01T20:06:04.429Z,13.23
2019-05-01T20:08:33.352Z,12.63
2019-05-01T20:11:03.620Z,12.83
2019-05-01T20:13:33.127Z,11.70
2019-05-01T20:16:02.761Z,15.07
2019-05-01T20:18:33.126Z,11.20
2019-05-01T20:21:02.668Z,14.27
2019-05-01T20:23:33.197Z,12.73
2019-05-01T20:26:02.749Z,13.00
2019-05-01T20:28:32.176Z,13.90
2019-05-01T20:31:03.818Z,11.60
2019-05-01T20:33:39.099Z,13.57
2019-05-01T20:36:06.616Z,13.47
2019-05-01T20:38:35.879Z,14.60
2019-05-01T20:41:10.148Z,12.93
2019-05-01T20:43:43.413Z,17.77
2019-05-01T20:46:12.288Z,13.77
2019-05-01T20:48:41.593Z,15.03
2019-05-01T20:51:11.672Z,13.63
2019-05-01T20:53:41.990Z,15.70
2019-05-01T20:56:19.648Z,14.60
2019-05-01T20:58:49.235Z,15.23
2019-05-01T21:01:19.579Z,15.33
2019-05-01T21:03:57.937Z,13.87
2019-05-01T21:06:28.774Z,15.80
2019-05-01T21:09:15.944Z,17.50
2019-05-01T21:11:48.775Z,18.60
2019-05-01T21:14:22.772Z,14.80
2019-05-01T21:16:50.278Z,17.97
2019-05-01T21:19:33.567Z,14.93
2019-05-01T21:22:04.074Z,15.10
2019-05-01T21:24:34.566Z,22.17
2019-05-01T21:27:03.737Z,17.47
2019-05-01T21:29:34.376Z,15.30
2019-05-01T21:32:05.020Z,18.97
2019-05-01T21:34:34.239Z,19.13
2019-05-01T21:37:03.423Z,19.00
2019-05-01T21:39:33.971Z,18.70
2019-05-01T21:42:11.276Z,17.63
2019-05-01T21:44:36.372Z,18.73
2019-05-01T21:47:05.777Z,17.40
2019-05-01T21:49:43.739Z,18.57
2019-05-01T21:52:23.067Z,20.70
2019-05-01T21:54:55.306Z,17.33
2019-05-01T21:57:24.538Z,18.07
2019-05-01T21:59:55.438Z,19.47
2019-05-01T22:02:24.952Z,21.23
2019-05-01T22:04:54.637Z,19.00
2019-05-01T22:07:27.929Z,20.40
2019-05-01T22:09:57.967Z,20.63
2019-05-01T22:12:27.123Z,19.93
2019-05-01T22:15:06.301Z,24.97
2019-05-01T22:18:02.488Z,22.23
2019-05-01T22:20:51.052Z,21.37
2019-05-01T22:23:25.397Z,20.90
2019-05-01T22:25:56.094Z,21.23
2019-05-01T22:28:44.748Z,20.83
2019-05-01T22:31:32.829Z,22.27
2019-05-01T22:34:20.572Z,23.17
2019-05-01T22:36:50.865Z,21.37
2019-05-01T22:39:21.818Z,19.07
2019-05-01T22:41:55.463Z,20.30
2019-05-01T22:44:25.346Z,21.63
2019-05-01T22:46:55.110Z,24.73
2019-05-01T22:49:24.512Z,25.87
2019-05-01T22:51:53.864Z,21.73
2019-05-01T22:54:23.659Z,21.53
2019-05-01T22:56:54.275Z,21.07
2019-05-01T22:59:25.224Z,22.30
2019-05-01T23:01:58.156Z,22.60
2019-05-01T23:04:27.792Z,21.37
2019-05-01T23:06:59.401Z,21.63
2019-05-01T23:09:30.342Z,26.63
2019-05-01T23:11:59.966Z,23.30
2019-05-01T23:14:29.562Z,24.93
2019-05-01T23:17:08.130Z,25.90
2019-05-01T23:19:37.546Z,25.70
2019-05-01T23:22:08.017Z,31.43
2019-05-01T23:24:37.430Z,25.53
2019-05-01T23:27:06.706Z,23.63
2019-05-01T23:29:36.149Z,27.33
2019-05-01T23:32:06.108Z,23.90
2019-05-01T23:34:35.518Z,24.93
2019-05-01T23:37:05.822Z,25.80
2019-05-01T23:39:40.263Z,25.07
2019-05-01T23:42:07.970Z,29.80
2019-05-01T23:44:42.950Z,28.10
2019-05-01T23:47:10.366Z,31.87
2019-05-01T23:49:39.789Z,29.33
2019-05-01T23:52:08.962Z,29.53
2019-05-01T23:54:38.686Z,30.63
2019-05-01T23:57:14.965Z,28.50
2019-05-01T23:59:41.408Z,30.90
